Time;durP1;ratioP1;P1;durP2;ratioP2;P2;SDS_P1;SDS_P2;PMS_P1;PMS_P2;Temp;Humidity;BMP_temperature;BMP_pressure;BME280_temperature;BME280_humidity;BME280_pressure;Samples;Min_cycle;Max_cycle;Signal;HPM_P1;HPM_P2
2024/01/25 00:04:26;;;;;;;;;;;9.60;99.90;;;;;;6671501;89;20057;-76
2024/01/25 00:14:27;;;;;;;;;;;9.60;99.90;;;;;;6678258;88;20078;-76
2024/01/25 00:24:27;;;;;;;;;;;9.50;99.90;;;;;;6675496;88;20118;-76
2024/01/25 00:34:28;;;;;;;;;;;9.50;99.90;;;;;;6683085;88;20673;-77
2024/01/25 00:44:28;;;;;;;;;;;9.40;99.90;;;;;;6682253;88;20207;-77
2024/01/25 00:54:29;;;;;;;;;;;9.40;99.90;;;;;;6688085;88;20099;-77
2024/01/25 01:04:29;;;;;;;;;;;9.30;99.90;;;;;;6690153;88;20101;-77
2024/01/25 01:14:30;;;;;;;;;;;9.30;99.90;;;;;;6684798;88;20076;-77
2024/01/25 01:24:30;;;;;;;;;;;9.30;99.90;;;;;;6687186;88;20065;-77
2024/01/25 01:34:31;;;;;;;;;;;9.20;99.90;;;;;;6687974;88;20064;-77
2024/01/25 01:44:31;;;;;;;;;;;9.10;99.90;;;;;;6688743;88;20527;-76
2024/01/25 01:54:32;;;;;;;;;;;8.90;99.90;;;;;;6692843;88;20171;-77
2024/01/25 02:04:32;;;;;;;;;;;8.80;99.90;;;;;;6679361;88;20052;-76
2024/01/25 02:14:33;;;;;;;;;;;8.70;99.90;;;;;;6681453;88;20074;-77
2024/01/25 02:24:33;;;;;;;;;;;8.50;99.90;;;;;;6680218;88;20070;-76
2024/01/25 02:34:34;;;;;;;;;;;8.40;99.90;;;;;;6679777;88;20059;-76
2024/01/25 02:44:34;;;;;;;;;;;8.30;99.90;;;;;;6677911;88;20086;-76
2024/01/25 02:54:36;;;;;;;;;;;8.10;99.90;;;;;;6679477;88;20078;-76
2024/01/25 03:04:36;;;;;;;;;;;8.10;99.90;;;;;;6680096;89;20523;-76
2024/01/25 03:14:37;;;;;;;;;;;8.00;99.90;;;;;;6682055;88;20052;-76
2024/01/25 03:24:38;;;;;;;;;;;7.90;99.90;;;;;;6694635;88;20092;-76
2024/01/25 03:34:39;;;;;;;;;;;8.00;99.90;;;;;;6683087;88;20122;-76
2024/01/25 03:44:42;;;;;;;;;;;7.80;99.90;;;;;;6679891;88;20112;-76
2024/01/25 03:54:42;;;;;;;;;;;7.70;99.90;;;;;;6676747;88;20078;-76
2024/01/25 04:04:42;;;;;;;;;;;7.70;99.90;;;;;;6672497;88;20149;-76
2024/01/25 04:14:43;;;;;;;;;;;7.60;99.90;;;;;;6675359;89;20106;-77
2024/01/25 04:24:43;;;;;;;;;;;7.60;99.90;;;;;;6677323;88;20069;-76
2024/01/25 04:34:46;;;;;;;;;;;7.70;99.90;;;;;;6679405;88;20065;-76
2024/01/25 04:44:46;;;;;;;;;;;7.70;99.90;;;;;;6679124;89;20090;-76
2024/01/25 04:54:47;;;;;;;;;;;7.70;99.90;;;;;;6677823;88;20073;-76
2024/01/25 05:04:47;;;;;;;;;;;7.60;99.90;;;;;;6677833;88;20065;-76
2024/01/25 05:14:48;;;;;;;;;;;7.40;99.90;;;;;;6678712;88;20068;-76
2024/01/25 05:24:48;;;;;;;;;;;7.20;99.90;;;;;;6676392;88;20089;-76
2024/01/25 05:34:49;;;;;;;;;;;7.10;99.90;;;;;;6681116;88;20078;-77
2024/01/25 05:44:49;;;;;;;;;;;6.90;99.90;;;;;;6683127;88;20196;-78
2024/01/25 05:54:50;;;;;;;;;;;6.80;99.90;;;;;;6680880;88;20704;-76
2024/01/25 06:04:50;;;;;;;;;;;6.80;99.90;;;;;;6678842;88;20082;-77
2024/01/25 06:14:52;;;;;;;;;;;6.90;99.90;;;;;;6677426;88;20200;-76
2024/01/25 06:24:52;;;;;;;;;;;6.80;99.90;;;;;;6677502;88;20045;-75
2024/01/25 06:34:53;;;;;;;;;;;6.80;99.90;;;;;;6688872;88;20275;-76
2024/01/25 06:44:53;;;;;;;;;;;6.70;99.90;;;;;;6686296;88;20086;-77
2024/01/25 06:54:54;;;;;;;;;;;6.50;99.90;;;;;;6677532;88;20069;-77
2024/01/25 07:04:55;;;;;;;;;;;6.50;99.90;;;;;;6688008;88;20060;-76
2024/01/25 07:14:55;;;;;;;;;;;6.40;99.90;;;;;;6682980;88;20057;-76
2024/01/25 07:24:56;;;;;;;;;;;6.30;99.90;;;;;;6680460;88;20122;-77
2024/01/25 07:34:56;;;;;;;;;;;6.30;99.90;;;;;;6681094;88;20526;-76
2024/01/25 07:44:57;;;;;;;;;;;6.20;99.90;;;;;;6724758;77;20182;-75
2024/01/25 07:54:57;;;;;;;;;;;6.20;99.90;;;;;;6731247;88;20068;-74
2024/01/25 08:04:58;;;;;;;;;;;6.30;99.90;;;;;;6731215;88;20091;-74
2024/01/25 08:14:58;;;;;;;;;;;6.40;99.90;;;;;;6741007;88;20054;-73
2024/01/25 08:24:59;;;;;;;;;;;6.60;99.90;;;;;;6746774;88;20062;-73
2024/01/25 08:34:59;;;;;;;;;;;6.80;99.90;;;;;;6744430;87;20125;-73
2024/01/25 08:45:00;;;;;;;;;;;7.20;99.90;;;;;;6738615;87;20058;-73
2024/01/25 08:55:00;;;;;;;;;;;7.70;99.90;;;;;;6735614;88;20095;-74
2024/01/25 09:05:01;;;;;;;;;;;8.00;99.90;;;;;;6739376;87;20059;-74
2024/01/25 09:15:02;;;;;;;;;;;8.30;99.90;;;;;;6742769;88;20073;-74
2024/01/25 09:25:03;;;;;;;;;;;8.60;99.90;;;;;;6751174;87;20062;-74
2024/01/25 09:35:04;;;;;;;;;;;9.00;99.90;;;;;;6743220;88;20050;-74
2024/01/25 09:45:06;;;;;;;;;;;9.20;99.90;;;;;;6747015;87;20434;-75
2024/01/25 09:55:07;;;;;;;;;;;9.50;99.90;;;;;;6734460;88;20573;-74
2024/01/25 10:05:07;;;;;;;;;;;9.90;99.90;;;;;;6734656;88;20070;-75
2024/01/25 10:15:08;;;;;;;;;;;9.70;99.90;;;;;;6746732;87;20088;-75
2024/01/25 10:25:12;;;;;;;;;;;10.00;99.90;;;;;;6734797;88;20058;-74
2024/01/25 10:35:14;;;;;;;;;;;10.50;99.90;;;;;;6737075;88;20639;-75
2024/01/25 10:45:14;;;;;;;;;;;11.20;99.90;;;;;;6742064;88;20099;-74
2024/01/25 10:55:16;;;;;;;;;;;11.50;99.90;;;;;;6741336;88;20057;-74
2024/01/25 11:05:18;;;;;;;;;;;11.70;99.90;;;;;;6754023;87;20203;-74
2024/01/25 11:15:23;;;;;;;;;;;11.90;99.90;;;;;;6754724;87;20053;-74
2024/01/25 11:25:26;;;;;;;;;;;12.00;99.90;;;;;;6736303;88;20046;-74
2024/01/25 11:35:26;;;;;;;;;;;12.10;99.90;;;;;;6732031;88;20058;-74
2024/01/25 11:45:27;;;;;;;;;;;13.30;99.90;;;;;;6736311;88;20557;-74
2024/01/25 11:55:27;;;;;;;;;;;13.30;99.90;;;;;;6744640;87;20080;-75
2024/01/25 12:05:28;;;;;;;;;;;13.40;99.90;;;;;;6749700;88;20119;-74
2024/01/25 12:15:28;;;;;;;;;;;14.20;99.90;;;;;;6743462;87;20497;-74
2024/01/25 12:25:30;;;;;;;;;;;13.70;99.90;;;;;;6739179;87;20080;-74
2024/01/25 12:35:30;;;;;;;;;;;14.70;99.90;;;;;;6734133;88;20599;-75
2024/01/25 12:45:30;;;;;;;;;;;13.90;99.90;;;;;;6747165;88;20206;-75
2024/01/25 12:55:31;;;;;;;;;;;14.20;99.90;;;;;;6738735;88;20093;-75
2024/01/25 13:05:33;;;;;;;;;;;14.30;99.90;;;;;;6731911;88;20117;-75
2024/01/25 13:15:34;;;;;;;;;;;14.50;99.90;;;;;;6741300;88;20063;-73
2024/01/25 13:25:34;;;;;;;;;;;14.20;99.90;;;;;;6754485;88;20067;-74
2024/01/25 13:35:35;;;;;;;;;;;13.70;99.90;;;;;;6730736;88;20053;-74
2024/01/25 13:45:56;;;;;;;;;;;13.70;99.90;;;;;;6743230;77;20104;-77
2024/01/25 13:55:56;;;;;;;;;;;12.80;99.90;;;;;;6730036;88;20600;-77
2024/01/25 14:05:57;;;;;;;;;;;12.50;99.90;;;;;;6732107;88;20050;-77
2024/01/25 14:15:58;;;;;;;;;;;12.30;99.90;;;;;;6727279;88;20175;-77
2024/01/25 14:25:59;;;;;;;;;;;12.30;99.90;;;;;;6723574;88;20162;-77
2024/01/25 14:35:59;;;;;;;;;;;12.00;99.90;;;;;;6723410;88;20050;-76
2024/01/25 14:46:00;;;;;;;;;;;11.90;99.90;;;;;;6725226;88;20477;-76
2024/01/25 14:56:01;;;;;;;;;;;11.60;99.90;;;;;;6728210;88;20046;-77
2024/01/25 15:06:01;;;;;;;;;;;11.40;99.90;;;;;;6731326;88;20058;-77
2024/01/25 15:16:02;;;;;;;;;;;11.40;99.90;;;;;;6728635;88;20072;-76
2024/01/25 15:26:03;;;;;;;;;;;11.30;99.90;;;;;;6728763;88;20097;-76
2024/01/25 15:36:04;;;;;;;;;;;11.30;99.90;;;;;;6719985;88;20071;-77
2024/01/25 15:46:04;;;;;;;;;;;11.10;99.90;;;;;;6722171;88;20141;-77
2024/01/25 15:56:05;;;;;;;;;;;11.00;99.90;;;;;;6729719;88;20520;-77
2024/01/25 16:06:05;;;;;;;;;;;10.90;99.90;;;;;;6728870;88;20125;-77
2024/01/25 16:16:06;;;;;;;;;;;10.90;99.90;;;;;;6722435;88;20123;-76
2024/01/25 16:26:06;;;;;;;;;;;10.80;99.90;;;;;;6727165;88;20576;-77
2024/01/25 16:36:07;;;;;;;;;;;10.90;99.90;;;;;;6725542;88;20072;-76
2024/01/25 16:46:07;;;;;;;;;;;10.80;99.90;;;;;;6734705;88;20634;-76
2024/01/25 16:56:07;;;;;;;;;;;10.80;99.90;;;;;;6733173;88;20108;-76
2024/01/25 17:06:08;;;;;;;;;;;10.70;99.90;;;;;;6729679;88;20885;-78
2024/01/25 17:16:08;;;;;;;;;;;10.60;99.90;;;;;;6747032;88;20062;-76
2024/01/25 17:26:09;;;;;;;;;;;10.50;99.90;;;;;;6727102;88;20535;-78
2024/01/25 17:36:09;;;;;;;;;;;10.30;99.90;;;;;;6737962;88;20078;-78
2024/01/25 17:46:10;;;;;;;;;;;10.30;99.90;;;;;;6732920;88;20175;-77
2024/01/25 17:56:10;;;;;;;;;;;10.20;99.90;;;;;;6725469;88;20084;-76
2024/01/25 18:06:10;;;;;;;;;;;10.00;99.90;;;;;;6726192;88;20054;-76
2024/01/25 18:16:11;;;;;;;;;;;9.90;99.90;;;;;;6730816;88;20134;-78
2024/01/25 18:26:12;;;;;;;;;;;9.90;99.90;;;;;;6736956;88;20066;-76
2024/01/25 18:36:13;;;;;;;;;;;9.80;99.90;;;;;;6733850;88;20054;-76
2024/01/25 18:46:13;;;;;;;;;;;9.90;99.90;;;;;;6729378;88;20509;-76
2024/01/25 18:56:14;;;;;;;;;;;9.90;99.90;;;;;;6736463;88;20090;-78
2024/01/25 19:06:14;;;;;;;;;;;9.70;99.90;;;;;;6735419;88;20140;-78
2024/01/25 19:16:15;;;;;;;;;;;9.40;99.90;;;;;;6735040;88;20151;-76
2024/01/25 19:26:16;;;;;;;;;;;9.30;99.90;;;;;;6728770;88;20054;-78
2024/01/25 19:36:16;;;;;;;;;;;9.20;99.90;;;;;;6732819;88;20080;-77
2024/01/25 19:46:17;;;;;;;;;;;9.10;99.90;;;;;;6728506;88;20096;-77
2024/01/25 19:56:19;;;;;;;;;;;9.10;99.90;;;;;;6730098;88;20559;-77
2024/01/25 20:06:20;;;;;;;;;;;9.00;99.90;;;;;;6734587;88;20179;-77
2024/01/25 20:16:20;;;;;;;;;;;9.00;99.90;;;;;;6738762;88;20065;-77
2024/01/25 20:26:22;;;;;;;;;;;8.90;99.90;;;;;;6730622;88;20073;-76
2024/01/25 20:36:23;;;;;;;;;;;8.80;99.90;;;;;;6730083;88;20580;-77
2024/01/25 20:46:23;;;;;;;;;;;8.80;99.90;;;;;;6730819;88;20180;-77
2024/01/25 20:56:23;;;;;;;;;;;8.80;99.90;;;;;;6729654;88;20102;-77
2024/01/25 21:06:26;;;;;;;;;;;8.70;99.90;;;;;;6730176;88;20543;-77
2024/01/25 21:16:26;;;;;;;;;;;8.70;99.90;;;;;;6733274;88;20075;-77
2024/01/25 21:26:27;;;;;;;;;;;8.70;99.90;;;;;;6734688;88;20432;-75
2024/01/25 21:36:27;;;;;;;;;;;8.70;99.90;;;;;;6746189;88;20050;-77
2024/01/25 21:46:28;;;;;;;;;;;8.80;99.90;;;;;;6741687;88;20054;-77
2024/01/25 21:56:28;;;;;;;;;;;8.80;99.90;;;;;;6736433;88;20132;-77
2024/01/25 22:06:29;;;;;;;;;;;8.80;99.90;;;;;;6732954;88;20061;-77
2024/01/25 22:16:29;;;;;;;;;;;8.80;99.90;;;;;;6737485;88;20204;-78
2024/01/25 22:26:29;;;;;;;;;;;8.80;99.90;;;;;;6741484;88;20076;-78
2024/01/25 22:36:30;;;;;;;;;;;8.80;99.90;;;;;;6738967;88;20121;-78
2024/01/25 22:46:31;;;;;;;;;;;8.80;99.90;;;;;;6733935;88;20070;-77
2024/01/25 22:56:31;;;;;;;;;;;8.80;99.90;;;;;;6729530;88;20100;-76
2024/01/25 23:06:31;;;;;;;;;;;8.90;99.90;;;;;;6737619;88;20064;-77
2024/01/25 23:16:32;;;;;;;;;;;8.80;99.90;;;;;;6740919;88;20068;-76
2024/01/25 23:26:32;;;;;;;;;;;8.90;99.90;;;;;;6735663;88;20523;-78
2024/01/25 23:36:33;;;;;;;;;;;9.00;99.90;;;;;;6734187;88;20107;-78
2024/01/25 23:46:34;;;;;;;;;;;9.10;99.90;;;;;;6744919;88;20107;-78
2024/01/25 23:56:36;;;;;;;;;;;9.10;99.90;;;;;;6743373;88;20100;-78
